createdAt,value
2019-01-09T00:03:21.901Z,32.87
2019-01-09T00:08:30.510Z,29.33
2019-01-09T00:13:37.561Z,30.33
2019-01-09T00:18:44.609Z,29.30
2019-01-09T00:23:51.762Z,25.07
2019-01-09T00:28:58.954Z,27.70
2019-01-09T00:34:06.560Z,22.93
2019-01-09T00:39:13.650Z,19.45
2019-01-09T00:44:20.768Z,17.17
2019-01-09T00:49:28.035Z,20.40
2019-01-09T00:54:35.667Z,18.63
2019-01-09T00:59:42.742Z,20.03
2019-01-09T01:05:33.722Z,19.97
2019-01-09T01:11:22.816Z,24.40
2019-01-09T01:17:05.411Z,22.87
2019-01-09T01:22:55.722Z,25.50
2019-01-09T01:28:12.936Z,26.63
2019-01-09T01:33:54.908Z,22.45
2019-01-09T01:39:27.175Z,20.57
2019-01-09T01:44:58.823Z,19.67
2019-01-09T01:50:24.109Z,20.13
2019-01-09T01:55:50.672Z,19.77
2019-01-09T02:01:27.954Z,18.53
2019-01-09T02:07:02.085Z,19.67
2019-01-09T02:12:46.497Z,21.20
2019-01-09T02:18:27.173Z,18.33
2019-01-09T02:24:16.772Z,22.43
2019-01-09T02:29:51.095Z,19.10
2019-01-09T02:34:58.240Z,19.53
2019-01-09T02:40:07.168Z,21.80
2019-01-09T02:45:14.388Z,19.37
2019-01-09T02:50:21.695Z,20.90
2019-01-09T02:55:28.847Z,18.23
2019-01-09T03:00:36.027Z,18.03
2019-01-09T03:05:43.098Z,17.27
2019-01-09T03:10:50.184Z,16.57
2019-01-09T03:15:57.271Z,16.57
2019-01-09T03:21:04.364Z,15.97
2019-01-09T03:26:12.027Z,15.72
2019-01-09T03:31:20.107Z,15.83
2019-01-09T03:36:32.524Z,15.87
2019-01-09T03:41:36.072Z,17.63
2019-01-09T03:46:43.609Z,17.90
2019-01-09T03:51:50.754Z,19.53
2019-01-09T03:56:57.820Z,18.87
2019-01-09T04:02:05.994Z,17.23
2019-01-09T04:07:13.291Z,16.97
2019-01-09T04:12:20.286Z,16.97
2019-01-09T04:17:27.355Z,15.47
2019-01-09T04:22:35.397Z,16.77
2019-01-09T04:27:42.461Z,16.90
2019-01-09T04:32:49.884Z,17.93
2019-01-09T04:37:56.950Z,18.47
2019-01-09T04:43:04.103Z,17.53
2019-01-09T04:48:11.288Z,17.65
2019-01-09T04:53:18.391Z,16.13
2019-01-09T04:58:25.475Z,15.23
2019-01-09T05:03:32.640Z,15.93
2019-01-09T05:08:44.805Z,17.67
2019-01-09T05:13:51.871Z,18.27
2019-01-09T05:19:00.073Z,17.93
2019-01-09T05:24:07.161Z,20.80
2019-01-09T05:29:14.250Z,22.03
2019-01-09T05:34:21.395Z,19.43
2019-01-09T05:39:28.475Z,18.40
2019-01-09T05:44:35.669Z,20.60
2019-01-09T05:49:42.759Z,20.20
2019-01-09T05:54:49.929Z,24.13
2019-01-09T05:59:57.099Z,21.00
2019-01-09T06:05:04.463Z,20.70
2019-01-09T06:10:11.559Z,21.87
2019-01-09T06:15:18.656Z,21.47
2019-01-09T06:20:25.745Z,20.87
2019-01-09T06:25:33.015Z,21.40
2019-01-09T06:30:40.303Z,20.13
2019-01-09T06:35:47.414Z,21.73
2019-01-09T06:40:54.592Z,19.77
2019-01-09T06:46:01.748Z,18.63
2019-01-09T06:51:10.232Z,19.97
2019-01-09T06:56:17.311Z,23.05
2019-01-09T07:01:24.600Z,25.70
2019-01-09T07:06:31.879Z,24.90
2019-01-09T07:11:39.119Z,27.97
2019-01-09T07:16:46.205Z,29.30
2019-01-09T07:21:53.667Z,29.20
2019-01-09T07:27:00.769Z,30.97
2019-01-09T07:32:07.950Z,25.23
2019-01-09T07:37:15.020Z,28.93
2019-01-09T07:42:22.295Z,64.70
2019-01-09T07:47:29.672Z,36.93
2019-01-09T07:52:38.733Z,29.83
2019-01-09T07:57:45.900Z,27.97
2019-01-09T08:02:52.962Z,28.10
2019-01-09T08:08:00.038Z,34.33
2019-01-09T08:13:09.287Z,31.50
2019-01-09T08:18:17.219Z,35.70
2019-01-09T08:23:25.429Z,36.33
2019-01-09T08:28:32.598Z,41.30
2019-01-09T08:33:39.578Z,38.70
2019-01-09T08:38:46.660Z,34.30
2019-01-09T08:43:54.241Z,35.45
2019-01-09T08:49:01.385Z,32.63
2019-01-09T08:54:08.342Z,29.83
2019-01-09T08:59:15.429Z,31.30
2019-01-09T09:04:22.906Z,37.23
2019-01-09T09:09:31.797Z,40.90
2019-01-09T09:14:39.331Z,39.80
2019-01-09T09:19:46.445Z,36.90
2019-01-09T09:24:53.518Z,37.40
2019-01-09T09:30:00.602Z,31.60
2019-01-09T09:35:07.881Z,33.43
2019-01-09T09:40:17.076Z,34.43
2019-01-09T09:45:24.157Z,33.47
2019-01-09T09:50:31.341Z,37.43
2019-01-09T09:55:38.739Z,34.77
2019-01-09T10:00:46.421Z,34.57
2019-01-09T10:05:53.489Z,32.67
2019-01-09T10:11:02.650Z,33.93
2019-01-09T10:16:09.705Z,40.90
2019-01-09T10:21:17.411Z,42.23
2019-01-09T10:26:24.503Z,51.10
2019-01-09T10:31:31.474Z,44.93
2019-01-09T10:36:38.441Z,49.90
2019-01-09T10:41:46.657Z,50.77
2019-01-09T10:46:53.734Z,45.93
2019-01-09T10:52:01.015Z,39.13
2019-01-09T10:57:08.706Z,38.77
2019-01-09T11:02:15.795Z,31.55
2019-01-09T11:07:23.088Z,32.67
2019-01-09T11:12:35.003Z,38.30
2019-01-09T11:17:42.619Z,32.17
2019-01-09T11:22:50.998Z,35.23
2019-01-09T11:27:58.088Z,35.87
2019-01-09T11:33:05.803Z,33.47
2019-01-09T11:38:12.875Z,32.70
2019-01-09T11:43:20.040Z,32.47
2019-01-09T11:48:27.658Z,32.70
2019-01-09T11:53:34.717Z,32.50
2019-01-09T11:58:41.687Z,34.40
2019-01-09T12:03:48.782Z,30.72
2019-01-09T12:09:04.314Z,31.70
2019-01-09T12:14:04.850Z,30.30
2019-01-09T12:19:11.945Z,29.87
2019-01-09T12:24:19.080Z,32.00
2019-01-09T12:29:26.241Z,31.93
2019-01-09T12:34:33.633Z,30.93
2019-01-09T12:39:40.642Z,35.07
2019-01-09T12:44:47.816Z,36.60
2019-01-09T12:49:54.900Z,36.93
2019-01-09T12:55:02.246Z,34.67
2019-01-09T13:00:14.335Z,34.93
2019-01-09T13:05:21.801Z,34.38
2019-01-09T13:10:29.504Z,29.63
2019-01-09T13:15:36.679Z,34.03
2019-01-09T13:20:43.746Z,34.13
2019-01-09T13:25:51.902Z,34.50
2019-01-09T13:30:58.989Z,35.43
2019-01-09T13:36:07.233Z,37.10
2019-01-09T13:41:14.406Z,37.70
2019-01-09T13:46:21.786Z,39.63
2019-01-09T13:51:28.984Z,37.37
2019-01-09T13:56:37.478Z,37.30
2019-01-09T14:01:45.853Z,34.50
2019-01-09T14:06:54.329Z,34.30
2019-01-09T14:12:01.369Z,31.43
2019-01-09T14:17:09.702Z,30.77
2019-01-09T14:22:16.877Z,29.57
2019-01-09T14:27:24.350Z,30.53
2019-01-09T14:32:32.001Z,28.63
2019-01-09T14:37:39.298Z,29.53
2019-01-09T14:42:46.437Z,31.03
2019-01-09T14:47:53.702Z,26.70
2019-01-09T14:53:00.966Z,28.30
2019-01-09T14:58:08.256Z,26.20
2019-01-09T15:03:15.436Z,27.57
2019-01-09T15:08:22.580Z,31.07
2019-01-09T15:13:29.821Z,27.37
2019-01-09T15:18:37.171Z,32.93
2019-01-09T15:23:46.371Z,32.00
2019-01-09T15:28:54.073Z,31.40
2019-01-09T15:34:01.408Z,32.13
2019-01-09T15:39:09.698Z,31.33
2019-01-09T15:44:18.620Z,33.10
2019-01-09T15:49:26.193Z,30.80
2019-01-09T15:54:33.962Z,29.23
2019-01-09T15:59:41.057Z,29.15
2019-01-09T16:04:49.172Z,27.97
2019-01-09T16:09:56.391Z,28.97
2019-01-09T16:15:03.471Z,26.43
2019-01-09T16:20:17.015Z,27.57
2019-01-09T16:25:21.203Z,27.10
2019-01-09T16:30:55.001Z,27.90
2019-01-09T16:36:02.261Z,25.13
2019-01-09T16:41:09.339Z,24.93
2019-01-09T16:46:18.139Z,25.20
2019-01-09T16:51:25.335Z,23.37
2019-01-09T16:56:32.743Z,24.90
2019-01-09T17:01:39.922Z,24.03
2019-01-09T17:06:47.004Z,23.87
2019-01-09T17:11:55.305Z,22.90
2019-01-09T17:17:02.487Z,22.27
2019-01-09T17:22:11.041Z,22.57
2019-01-09T17:27:19.233Z,22.53
2019-01-09T17:32:26.437Z,21.50
2019-01-09T17:37:34.035Z,18.23
2019-01-09T17:42:41.167Z,17.17
2019-01-09T17:47:50.210Z,15.47
2019-01-09T17:52:58.360Z,18.50
2019-01-09T17:58:05.824Z,14.23
2019-01-09T18:03:13.708Z,14.47
2019-01-09T18:08:23.010Z,13.40
2019-01-09T18:13:30.587Z,11.23
2019-01-09T18:18:38.285Z,12.47
2019-01-09T18:23:47.479Z,13.60
2019-01-09T18:28:54.743Z,11.93
2019-01-09T18:34:25.414Z,10.60
2019-01-09T18:39:46.198Z,10.27
2019-01-09T18:45:43.794Z,10.50
2019-01-09T18:51:41.738Z,10.23
2019-01-09T18:56:49.820Z,9.53
2019-01-09T19:01:58.321Z,9.27
2019-01-09T19:07:07.276Z,10.10
2019-01-09T19:12:14.439Z,10.80
2019-01-09T19:17:22.423Z,10.07
2019-01-09T19:22:29.509Z,10.67
2019-01-09T19:27:37.793Z,11.33
2019-01-09T19:32:44.980Z,13.23
2019-01-09T19:37:52.559Z,11.87
2019-01-09T19:43:00.675Z,13.97
2019-01-09T19:48:08.465Z,15.10
2019-01-09T19:53:15.940Z,12.93
2019-01-09T19:58:23.408Z,14.53
2019-01-09T20:03:31.129Z,14.27
2019-01-09T20:08:38.324Z,15.60
2019-01-09T20:13:46.495Z,14.40
2019-01-09T20:18:53.984Z,14.83
2019-01-09T20:24:01.042Z,15.87
2019-01-09T20:29:08.164Z,15.88
2019-01-09T20:34:15.823Z,15.03
2019-01-09T20:39:24.096Z,16.25
2019-01-09T20:44:31.749Z,17.63
2019-01-09T20:49:40.186Z,16.53
2019-01-09T20:54:47.222Z,15.10
2019-01-09T20:59:54.581Z,15.30
2019-01-09T21:05:02.313Z,13.93
2019-01-09T21:10:11.671Z,15.23
2019-01-09T21:15:19.342Z,15.00
2019-01-09T21:20:26.482Z,15.83
2019-01-09T21:25:34.201Z,15.10
2019-01-09T21:30:42.279Z,17.33
2019-01-09T21:35:50.961Z,15.40
2019-01-09T21:40:58.537Z,15.13
2019-01-09T21:46:07.015Z,16.73
2019-01-09T21:51:15.397Z,17.12
2019-01-09T21:56:23.762Z,15.98
2019-01-09T22:01:32.074Z,17.97
2019-01-09T22:06:39.351Z,17.97
2019-01-09T22:11:47.344Z,17.10
2019-01-09T22:16:54.487Z,16.53
2019-01-09T22:22:02.809Z,15.73
2019-01-09T22:27:09.877Z,17.07
2019-01-09T22:32:16.947Z,15.53
2019-01-09T22:37:25.327Z,15.80
2019-01-09T22:42:33.611Z,16.37
2019-01-09T22:47:40.974Z,16.93
2019-01-09T22:52:47.945Z,15.13
2019-01-09T22:57:55.127Z,15.43
2019-01-09T23:03:02.356Z,15.60
2019-01-09T23:08:10.750Z,16.47
2019-01-09T23:13:17.832Z,15.72
2019-01-09T23:18:24.916Z,16.70
2019-01-09T23:23:31.996Z,17.23
2019-01-09T23:28:42.207Z,16.87
2019-01-09T23:33:49.315Z,17.10
2019-01-09T23:38:56.369Z,17.47
2019-01-09T23:44:03.437Z,16.83
2019-01-09T23:49:10.494Z,16.23
2019-01-09T23:54:17.632Z,16.87
2019-01-09T23:59:24.740Z,14.97
